createdAt,value
2023-03-10T00:02:23.713Z,9.47
2023-03-10T00:04:53.089Z,9.43
2023-03-10T00:07:20.392Z,9.41
2023-03-10T00:09:47.140Z,9.46
2023-03-10T00:12:13.915Z,9.46
2023-03-10T00:14:40.338Z,9.48
2023-03-10T00:17:07.267Z,9.48
2023-03-10T00:19:33.687Z,9.49
2023-03-10T00:22:00.440Z,9.49
2023-03-10T00:24:27.297Z,9.52
2023-03-10T00:26:53.758Z,9.48
2023-03-10T00:29:20.311Z,9.55
2023-03-10T00:31:46.832Z,9.53
2023-03-10T00:34:13.646Z,9.52
2023-03-10T00:36:40.455Z,9.51
2023-03-10T00:39:10.763Z,9.52
2023-03-10T00:41:39.127Z,9.48
2023-03-10T00:44:06.816Z,9.46
2023-03-10T00:46:34.316Z,9.56
2023-03-10T00:49:00.952Z,9.55
2023-03-10T00:51:28.315Z,9.53
2023-03-10T00:53:55.133Z,9.56
2023-03-10T00:56:24.370Z,9.53
2023-03-10T00:58:53.090Z,9.58
2023-03-10T01:01:23.911Z,9.61
2023-03-10T01:03:52.074Z,9.61
2023-03-10T01:06:19.035Z,9.63
2023-03-10T01:08:45.457Z,9.66
2023-03-10T01:11:24.541Z,9.64
2023-03-10T01:13:52.335Z,9.64
2023-03-10T01:16:19.471Z,9.70
2023-03-10T01:18:45.930Z,9.71
2023-03-10T01:21:21.472Z,9.71
2023-03-10T01:23:48.985Z,9.68
2023-03-10T01:26:17.360Z,9.72
2023-03-10T01:28:45.583Z,9.72
2023-03-10T01:31:12.747Z,9.72
2023-03-10T01:33:41.011Z,9.69
2023-03-10T01:36:09.374Z,9.71
2023-03-10T01:38:36.588Z,9.68
2023-03-10T01:41:03.456Z,9.68
2023-03-10T01:43:48.174Z,9.69
2023-03-10T01:46:32.601Z,9.67
2023-03-10T01:49:14.330Z,9.70
2023-03-10T01:51:45.833Z,9.65
2023-03-10T01:54:20.361Z,9.68
2023-03-10T01:56:49.201Z,9.66
2023-03-10T01:59:15.661Z,9.51
2023-03-10T02:04:23.657Z,9.53
2023-03-10T02:06:52.127Z,9.53
2023-03-10T02:09:20.781Z,9.51
2023-03-10T02:11:48.190Z,9.59
2023-03-10T02:14:15.079Z,9.55
2023-03-10T02:16:41.718Z,9.61
2023-03-10T02:19:31.763Z,9.62
2023-03-10T02:22:05.070Z,9.59
2023-03-10T02:24:53.995Z,9.61
2023-03-10T02:27:27.350Z,9.59
2023-03-10T02:30:00.640Z,9.52
2023-03-10T02:32:30.656Z,9.49
2023-03-10T02:34:57.775Z,9.51
2023-03-10T02:37:30.427Z,9.51
2023-03-10T02:39:57.233Z,9.47
2023-03-10T02:42:26.724Z,9.54
2023-03-10T02:44:53.975Z,9.54
2023-03-10T02:47:20.824Z,9.58
2023-03-10T02:49:47.267Z,9.63
2023-03-10T02:52:41.416Z,9.58
2023-03-10T02:55:08.178Z,9.59
2023-03-10T02:57:34.787Z,9.45
2023-03-10T03:00:01.183Z,9.53
2023-03-10T03:02:27.615Z,9.56
2023-03-10T03:04:54.003Z,9.54
2023-03-10T03:07:20.635Z,9.53
2023-03-10T03:09:47.013Z,9.48
2023-03-10T03:12:13.761Z,9.43
2023-03-10T03:14:40.237Z,9.41
2023-03-10T03:17:06.744Z,9.36
2023-03-10T03:19:33.242Z,9.37
2023-03-10T03:21:59.664Z,9.33
2023-03-10T03:24:26.307Z,9.23
2023-03-10T03:26:52.859Z,9.24
2023-03-10T03:29:19.795Z,9.16
2023-03-10T03:31:46.271Z,9.14
2023-03-10T03:34:13.142Z,9.18
2023-03-10T03:36:39.702Z,9.23
2023-03-10T03:39:07.005Z,9.21
2023-03-10T03:41:34.397Z,9.21
2023-03-10T03:44:00.873Z,9.17
2023-03-10T03:46:27.498Z,9.11
2023-03-10T03:48:53.943Z,9.05
2023-03-10T03:51:20.476Z,8.97
2023-03-10T03:53:46.836Z,8.80
2023-03-10T03:56:13.448Z,8.74
2023-03-10T03:58:40.053Z,8.76
2023-03-10T04:01:06.441Z,8.64
2023-03-10T04:03:32.896Z,8.59
2023-03-10T04:05:59.444Z,8.59
2023-03-10T04:08:25.939Z,8.59
2023-03-10T04:10:54.044Z,8.55
2023-03-10T04:13:20.838Z,8.58
2023-03-10T04:15:47.309Z,8.67
2023-03-10T04:18:13.682Z,8.70
2023-03-10T04:20:40.433Z,8.64
2023-03-10T04:23:07.185Z,8.68
2023-03-10T04:25:33.596Z,8.66
2023-03-10T04:28:00.037Z,8.75
2023-03-10T04:30:29.650Z,8.82
2023-03-10T04:33:01.141Z,8.73
2023-03-10T04:35:28.889Z,8.69
2023-03-10T04:37:55.342Z,8.71
2023-03-10T04:40:21.967Z,8.69
2023-03-10T04:42:48.404Z,8.72
2023-03-10T04:45:15.000Z,8.81
2023-03-10T04:47:41.597Z,8.80
2023-03-10T04:50:09.974Z,8.78
2023-03-10T04:52:36.341Z,8.77
2023-03-10T04:55:03.583Z,8.83
2023-03-10T04:57:30.062Z,8.86
2023-03-10T04:59:56.492Z,8.85
2023-03-10T05:02:22.900Z,8.83
2023-03-10T05:04:49.811Z,8.87
2023-03-10T05:07:16.289Z,8.76
2023-03-10T05:09:42.721Z,8.78
2023-03-10T05:12:10.203Z,8.81
2023-03-10T05:14:38.318Z,8.78
2023-03-10T05:17:04.956Z,8.70
2023-03-10T05:19:34.363Z,8.62
2023-03-10T05:22:01.745Z,8.58
2023-03-10T05:24:28.478Z,8.55
2023-03-10T05:26:54.877Z,8.62
2023-03-10T05:29:21.629Z,8.65
2023-03-10T05:31:48.123Z,8.62
2023-03-10T05:34:15.204Z,8.67
2023-03-10T05:36:43.097Z,8.74
2023-03-10T05:39:10.901Z,8.77
2023-03-10T05:41:38.013Z,8.70
2023-03-10T05:44:04.580Z,8.57
2023-03-10T05:46:31.551Z,8.54
2023-03-10T05:48:58.015Z,8.59
2023-03-10T05:51:24.519Z,8.48
2023-03-10T05:53:50.877Z,8.46
2023-03-10T05:56:19.357Z,8.41
2023-03-10T05:58:46.808Z,8.54
2023-03-10T06:01:13.765Z,8.34
2023-03-10T06:03:40.629Z,8.38
2023-03-10T06:06:07.662Z,8.34
2023-03-10T06:08:34.496Z,8.24
2023-03-10T06:11:00.974Z,8.28
2023-03-10T06:13:27.813Z,8.24
2023-03-10T06:16:01.824Z,8.26
2023-03-10T06:18:29.444Z,8.22
2023-03-10T06:20:56.840Z,8.20
2023-03-10T06:23:24.501Z,8.27
2023-03-10T06:26:07.164Z,8.15
2023-03-10T06:28:36.610Z,8.14
2023-03-10T06:31:07.127Z,8.24
2023-03-10T06:33:34.659Z,8.25
2023-03-10T06:36:01.705Z,8.23
2023-03-10T06:38:28.714Z,8.32
2023-03-10T06:40:55.151Z,8.29
2023-03-10T06:43:21.610Z,8.36
2023-03-10T06:45:49.969Z,8.30
2023-03-10T06:48:17.167Z,8.27
2023-03-10T06:50:47.824Z,8.25
2023-03-10T06:53:16.692Z,8.23
2023-03-10T06:55:43.082Z,8.28
2023-03-10T06:58:09.501Z,8.38
2023-03-10T07:00:35.861Z,8.36
2023-03-10T07:03:02.242Z,8.40
2023-03-10T07:05:28.632Z,8.50
2023-03-10T07:07:55.567Z,8.45
2023-03-10T07:10:22.771Z,8.52
2023-03-10T07:12:55.059Z,8.59
2023-03-10T07:15:25.743Z,8.61
2023-03-10T07:17:52.806Z,8.62
2023-03-10T07:20:19.360Z,8.59
2023-03-10T07:22:45.749Z,8.53
2023-03-10T07:25:12.201Z,8.51
2023-03-10T07:27:38.880Z,8.54
2023-03-10T07:30:05.983Z,8.57
2023-03-10T07:32:32.696Z,8.56
2023-03-10T07:34:59.200Z,8.57
2023-03-10T07:37:25.646Z,8.64
2023-03-10T07:39:54.381Z,8.65
2023-03-10T07:42:21.036Z,8.65
2023-03-10T07:44:47.427Z,8.64
2023-03-10T07:47:13.788Z,8.66
2023-03-10T07:49:46.311Z,8.70
2023-03-10T07:52:16.207Z,8.77
2023-03-10T07:54:44.488Z,8.76
2023-03-10T07:57:15.532Z,8.89
2023-03-10T07:59:42.614Z,8.98
2023-03-10T08:02:13.118Z,9.21
2023-03-10T08:04:40.843Z,9.37
2023-03-10T08:07:08.500Z,9.52
2023-03-10T08:09:35.644Z,9.65
2023-03-10T08:12:03.346Z,9.77
2023-03-10T08:14:31.358Z,9.86
2023-03-10T08:16:58.540Z,10.01
2023-03-10T08:19:26.611Z,10.07
2023-03-10T08:21:57.646Z,10.18
2023-03-10T08:24:25.960Z,10.21
2023-03-10T08:26:52.382Z,10.25
2023-03-10T08:29:18.984Z,10.28
2023-03-10T08:31:45.524Z,10.26
2023-03-10T08:34:12.349Z,10.29
2023-03-10T08:36:40.080Z,10.33
2023-03-10T08:39:07.784Z,10.39
2023-03-10T08:41:38.287Z,10.40
2023-03-10T08:44:05.498Z,10.46
2023-03-10T08:46:33.119Z,10.44
2023-03-10T08:49:00.404Z,10.53
2023-03-10T08:51:28.103Z,10.54
2023-03-10T08:53:55.171Z,10.56
2023-03-10T08:56:23.008Z,10.48
2023-03-10T08:58:49.811Z,10.49
2023-03-10T09:01:17.445Z,10.59
2023-03-10T09:03:45.616Z,10.53
2023-03-10T09:06:13.781Z,10.42
2023-03-10T09:08:41.228Z,10.33
2023-03-10T09:11:09.167Z,10.18
2023-03-10T09:13:35.552Z,10.19
2023-03-10T09:16:01.962Z,10.13
2023-03-10T09:18:28.521Z,10.14
2023-03-10T09:20:54.955Z,10.20
2023-03-10T09:23:21.462Z,10.28
2023-03-10T09:25:48.813Z,10.26
2023-03-10T09:28:17.477Z,10.26
2023-03-10T09:30:45.363Z,10.30
2023-03-10T09:33:20.500Z,10.44
2023-03-10T09:36:05.012Z,10.47
2023-03-10T09:38:32.210Z,10.45
2023-03-10T09:41:09.893Z,10.56
2023-03-10T09:43:50.721Z,10.53
2023-03-10T09:46:23.454Z,10.52
2023-03-10T09:49:09.428Z,10.61
2023-03-10T09:51:41.056Z,10.63
2023-03-10T09:54:13.094Z,10.75
2023-03-10T09:56:39.534Z,10.74
2023-03-10T09:59:16.900Z,10.83
2023-03-10T10:01:47.212Z,10.87
2023-03-10T10:04:18.589Z,11.06
2023-03-10T10:06:47.066Z,11.23
2023-03-10T10:09:42.609Z,11.46
2023-03-10T10:12:18.083Z,11.49
2023-03-10T10:14:55.270Z,11.35
2023-03-10T10:17:56.794Z,11.26
2023-03-10T10:20:34.901Z,11.24
2023-03-10T10:23:01.275Z,11.26
2023-03-10T10:25:31.960Z,11.24
2023-03-10T10:28:01.337Z,11.36
2023-03-10T10:30:37.312Z,11.50
2023-03-10T10:33:06.205Z,11.67
2023-03-10T10:35:39.410Z,11.95
2023-03-10T10:38:13.254Z,11.86
2023-03-10T10:41:02.647Z,11.94
2023-03-10T10:43:31.982Z,12.05
2023-03-10T10:46:08.198Z,12.05
2023-03-10T10:48:44.057Z,11.90
2023-03-10T10:51:20.948Z,11.70
2023-03-10T10:53:48.188Z,11.70
2023-03-10T10:56:17.451Z,11.71
2023-03-10T10:59:00.181Z,11.77
2023-03-10T11:01:27.058Z,11.88
2023-03-10T11:04:07.039Z,11.95
2023-03-10T11:06:34.837Z,12.01
2023-03-10T11:09:12.460Z,12.08
2023-03-10T11:11:49.944Z,12.15
2023-03-10T11:14:16.275Z,12.22
2023-03-10T11:16:51.092Z,12.38
2023-03-10T11:19:49.758Z,12.59
2023-03-10T11:22:19.164Z,12.66
2023-03-10T11:25:10.037Z,12.33
2023-03-10T11:27:46.223Z,12.13
2023-03-10T11:30:18.328Z,11.94
2023-03-10T11:32:59.503Z,11.73
2023-03-10T11:35:49.272Z,11.50
2023-03-10T11:38:18.655Z,11.39
2023-03-10T11:40:58.554Z,11.20
2023-03-10T11:43:30.020Z,11.14
2023-03-10T11:46:00.698Z,11.06
2023-03-10T11:48:43.120Z,11.05
2023-03-10T11:51:23.155Z,10.88
2023-03-10T11:53:55.309Z,10.76
2023-03-10T11:56:24.147Z,10.68
2023-03-10T11:59:13.633Z,10.54
2023-03-10T12:02:07.367Z,10.41
2023-03-10T12:04:47.330Z,10.30
2023-03-10T12:07:27.110Z,10.28
2023-03-10T12:09:57.586Z,10.16
2023-03-10T12:12:32.203Z,10.05
2023-03-10T12:15:01.419Z,9.95
2023-03-10T12:17:28.600Z,9.89
2023-03-10T12:20:32.952Z,9.76
2023-03-10T12:23:00.292Z,9.64
2023-03-10T12:25:29.766Z,9.56
2023-03-10T12:28:18.003Z,9.53
2023-03-10T12:30:51.030Z,9.46
2023-03-10T12:33:39.547Z,9.49
2023-03-10T12:36:17.953Z,9.58
2023-03-10T12:38:53.976Z,9.65
2023-03-10T12:41:26.291Z,9.61
2023-03-10T12:43:54.328Z,9.61
2023-03-10T12:46:40.905Z,9.63
2023-03-10T12:49:12.992Z,9.41
2023-03-10T12:51:44.418Z,9.42
2023-03-10T12:54:47.829Z,9.31
2023-03-10T12:57:22.406Z,9.41
2023-03-10T13:00:20.168Z,9.55
2023-03-10T13:02:51.454Z,9.67
2023-03-10T13:05:32.743Z,9.72
2023-03-10T13:08:13.118Z,9.79
2023-03-10T13:10:39.960Z,9.82
2023-03-10T13:13:08.956Z,9.81
2023-03-10T13:15:36.120Z,9.74
2023-03-10T13:18:21.063Z,9.70
2023-03-10T13:20:48.574Z,9.71
2023-03-10T13:23:29.781Z,9.80
2023-03-10T13:26:01.505Z,9.73
2023-03-10T13:28:31.030Z,9.82
2023-03-10T13:31:18.138Z,9.79
2023-03-10T13:33:53.257Z,9.78
2023-03-10T13:36:31.857Z,9.75
2023-03-10T13:39:01.193Z,9.68
2023-03-10T13:41:28.162Z,9.65
2023-03-10T13:43:55.012Z,9.60
2023-03-10T13:46:26.832Z,9.61
2023-03-10T13:48:55.358Z,9.63
2023-03-10T13:51:21.756Z,9.64
2023-03-10T13:53:52.699Z,9.68
2023-03-10T13:56:29.043Z,9.66
2023-03-10T13:59:02.622Z,9.70
2023-03-10T14:01:32.679Z,9.71
2023-03-10T14:04:05.614Z,9.72
2023-03-10T14:06:32.787Z,9.70
2023-03-10T14:09:17.924Z,9.71
2023-03-10T14:11:46.902Z,9.72
2023-03-10T14:14:26.249Z,9.65
2023-03-10T14:16:56.258Z,9.66
2023-03-10T14:19:39.424Z,9.65
2023-03-10T14:22:37.990Z,9.58
2023-03-10T14:25:16.532Z,9.48
2023-03-10T14:27:56.469Z,9.41
2023-03-10T14:32:48.308Z,9.38
2023-03-10T14:35:17.150Z,9.44
2023-03-10T14:37:43.566Z,9.30
2023-03-10T14:40:10.853Z,9.22
2023-03-10T14:42:39.618Z,9.14
2023-03-10T14:45:31.276Z,9.07
2023-03-10T14:47:59.875Z,8.98
2023-03-10T14:50:28.084Z,8.92
2023-03-10T14:52:54.623Z,8.98
2023-03-10T14:55:21.763Z,8.87
2023-03-10T14:57:58.719Z,8.83
2023-03-10T15:00:25.392Z,8.78
2023-03-10T15:02:51.774Z,8.81
2023-03-10T15:05:21.516Z,8.75
2023-03-10T15:07:51.644Z,8.54
2023-03-10T15:10:20.986Z,8.47
2023-03-10T15:12:49.984Z,8.37
2023-03-10T15:15:18.194Z,8.39
2023-03-10T15:17:45.302Z,8.27
2023-03-10T15:20:20.568Z,8.16
2023-03-10T15:22:47.336Z,8.21
2023-03-10T15:25:16.106Z,8.04
2023-03-10T15:27:43.243Z,7.98
2023-03-10T15:30:17.989Z,7.89
2023-03-10T15:32:44.700Z,7.83
2023-03-10T15:35:12.284Z,7.74
2023-03-10T15:37:39.596Z,7.81
2023-03-10T15:40:07.064Z,7.64
2023-03-10T15:42:33.803Z,7.65
2023-03-10T15:45:00.679Z,7.58
2023-03-10T15:47:28.141Z,7.48
2023-03-10T15:49:54.527Z,7.47
2023-03-10T15:52:23.251Z,7.38
2023-03-10T15:54:49.971Z,7.37
2023-03-10T15:57:16.593Z,7.27
2023-03-10T15:59:43.206Z,7.22
2023-03-10T16:02:11.890Z,7.18
2023-03-10T16:04:38.478Z,7.07
2023-03-10T16:07:05.185Z,7.02
2023-03-10T16:09:33.052Z,6.90
2023-03-10T16:11:59.515Z,6.95
2023-03-10T16:14:26.289Z,6.97
2023-03-10T16:16:53.326Z,6.94
2023-03-10T16:19:19.961Z,6.85
2023-03-10T16:21:46.778Z,6.78
2023-03-10T16:24:13.511Z,6.76
2023-03-10T16:26:42.060Z,6.76
2023-03-10T16:29:09.378Z,6.80
2023-03-10T16:31:35.903Z,6.78
2023-03-10T16:34:02.407Z,6.73
2023-03-10T16:36:29.542Z,6.73
2023-03-10T16:38:57.729Z,6.71
2023-03-10T16:41:24.636Z,6.67
2023-03-10T16:43:52.203Z,6.64
2023-03-10T16:46:26.137Z,6.51
2023-03-10T16:48:54.575Z,6.50
2023-03-10T16:51:37.551Z,6.48
2023-03-10T16:54:12.877Z,6.35
2023-03-10T16:56:51.069Z,6.28
2023-03-10T16:59:24.539Z,6.14
2023-03-10T17:01:51.689Z,6.04
2023-03-10T17:04:19.185Z,5.70
2023-03-10T17:06:46.687Z,5.13
2023-03-10T17:09:15.345Z,4.56
2023-03-10T17:11:46.481Z,4.45
2023-03-10T17:14:15.593Z,4.24
2023-03-10T17:16:45.661Z,4.10
2023-03-10T17:19:30.258Z,3.75
2023-03-10T17:21:58.193Z,3.52
2023-03-10T17:24:25.083Z,3.14
2023-03-10T17:26:51.742Z,2.95
2023-03-10T17:29:18.287Z,2.69
2023-03-10T17:31:48.730Z,2.51
2023-03-10T17:34:15.200Z,2.35
2023-03-10T17:36:41.733Z,2.16
2023-03-10T17:39:08.557Z,1.90
2023-03-10T17:41:36.245Z,1.80
2023-03-10T17:44:06.150Z,1.71
2023-03-10T17:46:32.856Z,1.64
2023-03-10T17:49:00.230Z,1.52
2023-03-10T17:51:29.838Z,1.33
2023-03-10T17:53:58.740Z,1.29
2023-03-10T17:56:25.961Z,1.24
2023-03-10T17:58:54.396Z,1.24
2023-03-10T18:01:23.666Z,1.19
2023-03-10T18:03:50.133Z,1.06
2023-03-10T18:06:19.685Z,1.04
2023-03-10T18:08:46.742Z,0.93
2023-03-10T18:11:13.537Z,0.94
2023-03-10T18:13:40.353Z,0.90
2023-03-10T18:16:08.827Z,0.85
2023-03-10T18:18:35.344Z,0.77
2023-03-10T18:21:02.148Z,0.79
2023-03-10T18:23:28.605Z,0.73
2023-03-10T18:25:55.081Z,0.77
2023-03-10T18:28:23.060Z,0.75
2023-03-10T18:30:51.794Z,0.72
2023-03-10T18:33:18.882Z,0.76
2023-03-10T18:35:48.541Z,0.72
2023-03-10T18:38:17.129Z,0.73
2023-03-10T18:40:44.226Z,0.67
2023-03-10T18:43:10.874Z,0.72
2023-03-10T18:45:39.809Z,0.66
2023-03-10T18:48:07.533Z,0.67
2023-03-10T18:50:33.958Z,0.68
2023-03-10T18:53:00.780Z,0.70
2023-03-10T18:55:27.206Z,0.63
2023-03-10T18:57:53.632Z,0.69
2023-03-10T19:00:21.536Z,0.69
2023-03-10T19:02:50.500Z,0.67
2023-03-10T19:05:16.970Z,0.63
2023-03-10T19:07:43.621Z,0.67
2023-03-10T19:10:13.730Z,0.66
2023-03-10T19:12:41.117Z,0.62
2023-03-10T19:15:09.135Z,0.62
2023-03-10T19:17:37.792Z,0.62
2023-03-10T19:20:07.683Z,0.59
2023-03-10T19:22:35.298Z,0.54
2023-03-10T19:25:03.659Z,0.54
2023-03-10T19:27:30.870Z,0.52
2023-03-10T19:29:57.913Z,0.49
2023-03-10T19:32:26.021Z,0.48
2023-03-10T19:34:52.845Z,0.59
2023-03-10T19:37:20.933Z,0.51
2023-03-10T19:39:47.436Z,0.53
2023-03-10T19:42:13.830Z,0.58
2023-03-10T19:44:40.193Z,0.56
2023-03-10T19:47:06.742Z,0.60
2023-03-10T19:49:34.118Z,0.59
2023-03-10T19:52:01.769Z,0.64
2023-03-10T19:54:28.216Z,0.68
2023-03-10T19:56:54.962Z,0.66
2023-03-10T19:59:21.342Z,0.70
2023-03-10T20:01:49.223Z,0.69
2023-03-10T20:04:16.157Z,0.66
2023-03-10T20:06:42.614Z,0.66
2023-03-10T20:09:10.744Z,0.61
2023-03-10T20:11:39.250Z,0.60
2023-03-10T20:14:06.190Z,0.64
2023-03-10T20:16:38.221Z,0.61
2023-03-10T20:19:04.825Z,0.62
2023-03-10T20:21:31.215Z,0.63
2023-03-10T20:23:58.001Z,0.61
2023-03-10T20:26:24.553Z,0.64
2023-03-10T20:28:51.349Z,0.67
2023-03-10T20:31:20.995Z,0.66
2023-03-10T20:33:48.508Z,0.62
2023-03-10T20:36:15.841Z,0.47
2023-03-10T20:38:44.112Z,0.46
2023-03-10T20:41:15.757Z,0.46
2023-03-10T20:43:43.473Z,0.41
2023-03-10T20:46:10.527Z,0.40
2023-03-10T20:48:37.295Z,0.47
2023-03-10T20:51:04.447Z,0.44
2023-03-10T20:53:33.481Z,0.47
2023-03-10T20:56:00.753Z,0.40
2023-03-10T20:58:27.755Z,0.47
2023-03-10T21:00:54.207Z,0.42
2023-03-10T21:03:23.569Z,0.43
2023-03-10T21:05:50.094Z,0.42
2023-03-10T21:08:16.609Z,0.38
2023-03-10T21:10:44.699Z,0.41
2023-03-10T21:13:11.722Z,0.43
2023-03-10T21:15:39.848Z,0.37
2023-03-10T21:18:06.525Z,0.36
2023-03-10T21:20:34.325Z,0.42
2023-03-10T21:23:00.794Z,0.41
2023-03-10T21:25:28.257Z,0.41
2023-03-10T21:27:58.950Z,0.40
2023-03-10T21:30:30.442Z,0.39
2023-03-10T21:32:58.385Z,0.42
2023-03-10T21:35:26.493Z,0.46
2023-03-10T21:37:55.564Z,0.45
2023-03-10T21:40:24.072Z,0.50
2023-03-10T21:42:51.135Z,0.44
2023-03-10T21:45:21.498Z,0.44
2023-03-10T21:47:48.368Z,0.51
2023-03-10T21:50:17.617Z,0.49
2023-03-10T21:52:44.348Z,0.55
2023-03-10T21:55:19.478Z,0.45
2023-03-10T21:57:46.888Z,0.39
2023-03-10T22:00:15.091Z,0.31
2023-03-10T22:02:42.375Z,0.31
2023-03-10T22:05:12.523Z,0.34
2023-03-10T22:07:39.472Z,0.33
2023-03-10T22:10:07.319Z,0.32
2023-03-10T22:12:34.128Z,0.29
2023-03-10T22:15:00.745Z,0.28
2023-03-10T22:17:29.412Z,0.35
2023-03-10T22:19:56.012Z,0.33
2023-03-10T22:22:22.981Z,0.35
2023-03-10T22:24:49.731Z,0.31
2023-03-10T22:27:17.190Z,0.27
2023-03-10T22:29:43.786Z,0.31
2023-03-10T22:32:10.794Z,0.26
2023-03-10T22:34:37.715Z,0.25
2023-03-10T22:37:04.291Z,0.27
2023-03-10T22:39:31.274Z,0.26
2023-03-10T22:41:57.663Z,0.23
2023-03-10T22:44:24.819Z,0.22
2023-03-10T22:46:51.319Z,0.24
2023-03-10T22:49:19.421Z,0.32
2023-03-10T22:51:45.843Z,0.25
2023-03-10T22:54:12.718Z,0.22
2023-03-10T22:56:39.116Z,0.26
2023-03-10T22:59:05.885Z,0.30
2023-03-10T23:01:32.457Z,0.25
2023-03-10T23:03:59.307Z,0.27
2023-03-10T23:06:28.944Z,0.24
2023-03-10T23:08:59.226Z,0.17
2023-03-10T23:11:26.260Z,0.20
2023-03-10T23:13:53.308Z,0.26
2023-03-10T23:16:19.930Z,0.20
2023-03-10T23:18:47.010Z,0.22
2023-03-10T23:21:14.208Z,0.16
2023-03-10T23:23:43.654Z,0.14
2023-03-10T23:26:11.618Z,0.15
2023-03-10T23:28:38.567Z,0.09
2023-03-10T23:31:05.713Z,0.10
2023-03-10T23:33:32.347Z,0.12
2023-03-10T23:35:58.903Z,0.14
2023-03-10T23:38:26.171Z,0.16
2023-03-10T23:40:53.703Z,0.17
2023-03-10T23:43:20.144Z,0.15
2023-03-10T23:45:47.170Z,0.14
2023-03-10T23:48:16.749Z,0.20
2023-03-10T23:50:45.423Z,0.16
2023-03-10T23:53:14.237Z,0.13
2023-03-10T23:55:43.834Z,0.23
2023-03-10T23:58:11.932Z,0.17
